Time;durP1;ratioP1;P1;durP2;ratioP2;P2;SDS_P1;SDS_P2;PMS_P1;PMS_P2;Temp;Humidity;BMP_temperature;BMP_pressure;BME280_temperature;BME280_humidity;BME280_pressure;Samples;Min_cycle;Max_cycle;Signal;HPM_P1;HPM_P2
2023/10/16 00:01:15;;;;;;;0.93;0.50;;;;;;;7.03;56.39;101843.16;5023768;27;97144;-75
2023/10/16 00:03:41;;;;;;;3.23;0.73;;;;;;;7.05;56.37;101843.44;5020672;27;97053;-75
2023/10/16 00:06:07;;;;;;;1.50;0.50;;;;;;;7.05;56.47;101845.41;5026102;27;97405;-76
2023/10/16 00:08:35;;;;;;;0.70;0.60;;;;;;;7.01;56.40;101845.59;5026810;27;97369;-74
2023/10/16 00:11:03;;;;;;;2.73;0.73;;;;;;;7.03;56.51;101845.13;5022920;27;97766;-76
2023/10/16 00:13:30;;;;;;;0.80;0.60;;;;;;;7.02;56.34;101851.88;5029517;27;96677;-75
2023/10/16 00:15:58;;;;;;;2.70;0.50;;;;;;;7.00;56.62;101848.81;5027563;27;97294;-75
2023/10/16 00:18:31;;;;;;;2.63;0.60;;;;;;;7.00;56.61;101841.34;5027796;27;97480;-75
2023/10/16 00:20:56;;;;;;;1.70;0.63;;;;;;;6.99;56.57;101845.28;5027825;27;97468;-75
2023/10/16 00:23:25;;;;;;;1.70;0.50;;;;;;;6.95;56.71;101869.47;5028969;27;97089;-75
2023/10/16 00:25:51;;;;;;;1.63;0.50;;;;;;;6.95;56.66;101858.47;5025412;27;100937;-75
2023/10/16 00:28:23;;;;;;;0.60;0.47;;;;;;;6.94;56.63;101845.91;5041829;27;99027;-75
2023/10/16 00:30:50;;;;;;;1.80;0.80;;;;;;;6.91;56.70;101854.34;5028588;27;97876;-76
2023/10/16 00:33:16;;;;;;;0.90;0.70;;;;;;;6.91;56.69;101852.34;5028708;27;97045;-75
2023/10/16 00:35:43;;;;;;;1.30;0.80;;;;;;;6.88;56.78;101847.75;5026731;27;97397;-75
2023/10/16 00:38:12;;;;;;;2.30;0.70;;;;;;;6.91;56.93;101852.34;5027662;27;97128;-75
2023/10/16 00:40:40;;;;;;;1.63;1.07;;;;;;;6.91;56.69;101852.34;5026467;27;98828;-75
2023/10/16 00:43:12;;;;;;;1.60;0.50;;;;;;;6.89;56.83;101863.06;5026041;27;97002;-75
2023/10/16 00:46:06;;;;;;;3.10;0.60;;;;;;;6.89;57.18;101854.03;5024796;27;99914;-74
2023/10/16 00:48:37;;;;;;;2.03;0.70;;;;;;;6.85;56.93;101851.44;5041205;27;99488;-75
2023/10/16 00:51:13;;;;;;;4.20;1.00;;;;;;;6.85;56.81;101859.69;5027819;27;97877;-75
2023/10/16 00:53:40;;;;;;;4.47;0.60;;;;;;;6.83;56.96;101856.63;5026155;27;97250;-76
2023/10/16 00:56:09;;;;;;;2.10;0.63;;;;;;;6.85;57.00;101850.69;5025116;27;97158;-75
2023/10/16 00:58:35;;;;;;;2.27;0.50;;;;;;;6.83;57.07;101848.38;5023791;27;98954;-75
2023/10/16 01:01:04;;;;;;;2.03;0.60;;;;;;;6.85;57.07;101851.44;5025404;27;97370;-76
2023/10/16 01:03:33;;;;;;;1.20;0.60;;;;;;;6.85;57.07;101843.19;5026693;27;97558;-76
2023/10/16 01:05:59;;;;;;;2.30;0.67;;;;;;;6.83;56.97;101845.63;5024792;27;98367;-76
2023/10/16 01:08:25;;;;;;;1.90;0.70;;;;;;;6.84;57.03;101840.91;5029239;27;99674;-75
2023/10/16 01:10:54;;;;;;;2.33;0.70;;;;;;;6.87;57.13;101839.97;5026620;27;97661;-75
2023/10/16 01:13:19;;;;;;;1.67;0.50;;;;;;;6.86;57.23;101843.94;5027507;27;98013;-76
2023/10/16 01:15:47;;;;;;;1.50;0.70;;;;;;;6.81;57.27;101847.34;5039266;27;115856;-76
2023/10/16 01:18:15;;;;;;;1.63;0.87;;;;;;;6.84;57.08;101844.41;5027828;27;97257;-75
2023/10/16 01:20:48;;;;;;;1.57;0.70;;;;;;;6.82;57.23;101844.13;5030158;27;97371;-75
2023/10/16 01:23:18;;;;;;;2.43;0.70;;;;;;;6.81;57.34;101848.09;5023821;27;96832;-75
2023/10/16 01:25:46;;;;;;;1.53;0.70;;;;;;;6.79;57.41;101856.03;5026874;27;97319;-75
2023/10/16 01:28:12;;;;;;;1.73;0.60;;;;;;;6.79;57.39;101850.53;5027338;27;97296;-75
2023/10/16 01:30:41;;;;;;;1.47;0.77;;;;;;;6.78;57.35;101846.28;5027351;27;97191;-75
2023/10/16 01:33:07;;;;;;;4.90;0.80;;;;;;;6.81;57.32;101842.56;5024378;27;97057;-76
2023/10/16 01:35:36;;;;;;;0.90;0.70;;;;;;;6.80;57.54;101852.06;5025860;27;97517;-76
2023/10/16 01:38:13;;;;;;;2.17;0.73;;;;;;;6.77;57.40;101832.97;5030163;27;96833;-75
2023/10/16 01:40:47;;;;;;;2.03;0.60;;;;;;;6.77;57.46;101835.72;5030132;27;96701;-74
2023/10/16 01:43:15;;;;;;;1.30;0.60;;;;;;;6.76;57.47;101839.69;5025831;27;97139;-75
2023/10/16 01:45:49;;;;;;;1.23;0.60;;;;;;;6.78;57.58;101840.75;5030717;27;97881;-75
2023/10/16 01:48:19;;;;;;;4.40;0.77;;;;;;;6.78;57.51;101846.28;5032892;27;97832;-76
2023/10/16 01:50:49;;;;;;;2.53;0.70;;;;;;;6.82;57.57;101843.34;5030638;27;96849;-74
2023/10/16 01:53:22;;;;;;;1.90;0.63;;;;;;;6.80;57.53;101841.06;5029765;27;97097;-75
2023/10/16 01:55:51;;;;;;;2.60;0.80;;;;;;;6.76;57.51;101832.22;5029371;27;97689;-75
2023/10/16 01:58:17;;;;;;;0.77;0.40;;;;;;;6.79;57.59;101836.78;5028270;27;100085;-76
2023/10/16 02:00:43;;;;;;;1.60;0.60;;;;;;;6.79;57.63;101847.00;5028015;27;97014;-75
2023/10/16 02:03:09;;;;;;;3.57;1.10;;;;;;;6.77;57.62;101847.47;5031988;27;97279;-75
2023/10/16 02:05:34;;;;;;;1.00;0.60;;;;;;;6.73;57.66;101848.84;5032464;27;96827;-75
2023/10/16 02:07:59;;;;;;;1.37;0.60;;;;;;;6.72;57.75;101837.09;5027717;27;98926;-75
2023/10/16 02:10:25;;;;;;;1.23;0.60;;;;;;;6.71;57.78;101838.31;5030181;27;98792;-75
2023/10/16 02:12:50;;;;;;;2.03;0.90;;;;;;;6.69;57.73;101837.25;5027957;27;97533;-75
2023/10/16 02:15:21;;;;;;;0.93;0.70;;;;;;;6.70;57.74;101845.03;5021720;27;103459;-75
2023/10/16 02:17:49;;;;;;;1.27;0.50;;;;;;;6.71;57.82;101837.56;5025655;27;96754;-75
2023/10/16 02:20:16;;;;;;;1.40;0.67;;;;;;;6.67;57.86;101826.72;5020286;27;96771;-75
2023/10/16 02:22:41;;;;;;;1.60;0.80;;;;;;;6.67;57.77;101829.47;5040959;27;97173;-75
2023/10/16 02:25:08;;;;;;;0.90;0.60;;;;;;;6.65;57.75;101831.94;5028129;27;96852;-75
2023/10/16 02:27:35;;;;;;;2.67;0.60;;;;;;;6.64;57.75;101822.13;5025738;27;96751;-74
2023/10/16 02:30:16;;;;;;;1.23;0.70;;;;;;;6.64;57.76;101830.38;5026050;27;96713;-75
2023/10/16 02:32:42;;;;;;;1.60;0.90;;;;;;;6.60;57.72;101829.75;5024720;27;97140;-74
2023/10/16 02:35:13;;;;;;;2.23;0.67;;;;;;;6.56;57.72;101831.91;5023971;27;97700;-75
2023/10/16 02:37:39;;;;;;;3.07;0.70;;;;;;;6.53;57.84;101821.81;5025630;27;97183;-75
2023/10/16 02:40:09;;;;;;;1.27;0.50;;;;;;;6.54;57.85;101819.84;5039431;27;97338;-75
2023/10/16 02:42:35;;;;;;;0.87;0.50;;;;;;;6.52;57.92;101820.31;5026816;27;100352;-75
2023/10/16 02:45:00;;;;;;;2.03;0.90;;;;;;;6.49;57.96;101826.72;5023363;27;98568;-75
2023/10/16 02:47:25;;;;;;;2.13;0.60;;;;;;;6.47;58.03;101823.66;5024697;27;97139;-74
2023/10/16 02:49:51;;;;;;;1.10;0.60;;;;;;;6.47;57.95;101812.66;5023173;27;97119;-75
2023/10/16 02:52:17;;;;;;;0.80;0.67;;;;;;;6.45;57.87;101811.59;5024198;27;97073;-76
2023/10/16 02:54:46;;;;;;;0.77;0.50;;;;;;;6.45;57.99;101811.59;5026492;27;98546;-75
2023/10/16 02:57:11;;;;;;;1.67;0.50;;;;;;;6.42;57.91;101809.75;5023394;27;97713;-75
2023/10/16 02:59:38;;;;;;;2.10;0.50;;;;;;;6.42;58.00;101807.75;5024628;27;97223;-75
2023/10/16 03:02:10;;;;;;;1.43;0.70;;;;;;;6.43;58.09;101811.28;5023858;27;96869;-75
2023/10/16 03:04:35;;;;;;;2.60;0.90;;;;;;;6.40;58.09;101814.94;5023424;27;96791;-75
2023/10/16 03:07:01;;;;;;;2.60;0.60;;;;;;;6.39;58.07;101814.19;5023754;27;112650;-75
2023/10/16 03:09:28;;;;;;;1.10;0.60;;;;;;;6.39;58.06;101813.44;5025684;27;97269;-75
2023/10/16 03:12:04;;;;;;;3.00;0.70;;;;;;;6.41;58.12;101820.00;5024382;27;97538;-75
2023/10/16 03:14:44;;;;;;;4.93;1.00;;;;;;;6.42;58.17;101816.00;5025783;27;97493;-75
2023/10/16 03:17:10;;;;;;;1.80;0.80;;;;;;;6.46;58.12;101816.63;5024565;27;97166;-75
2023/10/16 03:19:36;;;;;;;1.07;0.60;;;;;;;6.44;58.19;101821.06;5024755;27;97072;-75
2023/10/16 03:22:04;;;;;;;2.60;0.70;;;;;;;6.47;58.20;101812.66;5022212;27;97308;-75
2023/10/16 03:24:30;;;;;;;1.10;0.50;;;;;;;6.50;58.20;101830.22;5023007;27;97888;-75
2023/10/16 03:26:57;;;;;;;2.20;0.70;;;;;;;6.52;58.24;101822.28;5024612;27;97340;-75
2023/10/16 03:29:23;;;;;;;1.37;0.53;;;;;;;6.55;58.27;101824.09;5024077;27;97346;-75
2023/10/16 03:31:48;;;;;;;1.90;0.67;;;;;;;6.54;58.23;101828.84;5023969;27;97066;-75
2023/10/16 03:34:14;;;;;;;2.23;0.83;;;;;;;6.57;58.30;101824.41;5022409;27;108972;-75
2023/10/16 03:36:41;;;;;;;2.73;0.87;;;;;;;6.57;58.33;101827.16;5019653;27;99020;-75
2023/10/16 03:39:08;;;;;;;4.33;0.73;;;;;;;6.57;58.42;101825.16;5023520;27;97085;-75
2023/10/16 03:41:33;;;;;;;2.83;0.60;;;;;;;6.57;58.44;101819.66;5024843;27;97114;-75
2023/10/16 03:44:14;;;;;;;2.10;0.60;;;;;;;6.59;58.41;101825.47;5020631;27;97890;-75
2023/10/16 03:46:40;;;;;;;1.57;0.70;;;;;;;6.59;58.50;101825.47;5016834;27;97442;-74
2023/10/16 03:49:06;;;;;;;3.80;0.70;;;;;;;6.58;58.38;101829.44;5018300;28;98693;-74
2023/10/16 03:51:32;;;;;;;0.70;0.70;;;;;;;6.60;58.63;101818.75;5011211;27;98250;-75
2023/10/16 03:53:57;;;;;;;2.77;1.23;;;;;;;6.59;58.57;101810.97;5009637;27;101370;-74
2023/10/16 03:56:24;;;;;;;1.73;0.80;;;;;;;6.62;58.59;101816.34;5014669;28;116967;-75
2023/10/16 03:58:53;;;;;;;0.80;0.70;;;;;;;6.64;58.69;101822.13;5012816;28;97342;-74
2023/10/16 04:01:27;;;;;;;2.10;0.80;;;;;;;6.64;58.64;101822.13;5019457;28;97273;-76
2023/10/16 04:03:56;;;;;;;2.63;0.67;;;;;;;6.67;58.68;101826.72;5017573;28;98071;-75
2023/10/16 04:06:24;;;;;;;3.13;1.13;;;;;;;6.69;58.75;101823.50;5014919;28;99403;-74
2023/10/16 04:08:51;;;;;;;3.33;1.10;;;;;;;6.71;58.73;101821.06;5013223;27;98006;-75
2023/10/16 04:11:18;;;;;;;2.43;0.80;;;;;;;6.71;58.62;101841.06;5017952;28;97072;-75
2023/10/16 04:13:49;;;;;;;1.57;0.60;;;;;;;6.71;58.62;101827.31;5020962;28;97803;-75
2023/10/16 04:16:30;;;;;;;2.53;0.70;;;;;;;6.74;58.43;101828.41;5019238;27;98728;-75
2023/10/16 04:19:20;;;;;;;0.60;0.50;;;;;;;6.70;58.64;101822.28;5018547;28;97568;-76
2023/10/16 04:21:45;;;;;;;1.10;0.57;;;;;;;6.68;58.74;101822.72;5020700;28;97658;-75
2023/10/16 04:29:45;;;;;;;4.67;0.73;;;;;;;6.64;58.87;101843.38;5020427;27;97032;-75
2023/10/16 04:32:37;;;;;;;3.00;0.80;;;;;;;6.60;58.76;101818.75;5020664;28;97003;-75
2023/10/16 04:35:28;;;;;;;2.30;0.77;;;;;;;6.61;58.77;101825.78;5035565;27;99720;-75
2023/10/16 04:37:49;;;;;;;1.40;0.60;;;;;;;6.62;58.78;101818.31;5017823;28;97850;-75
2023/10/16 05:00:57;;;;;;;2.50;0.80;;;;;;;6.59;58.93;101813.72;5025090;27;96774;-75
2023/10/16 05:03:24;;;;;;;1.83;0.70;;;;;;;6.56;59.00;101823.66;5041083;27;96780;-75
2023/10/16 05:08:48;;;;;;;1.87;0.77;;;;;;;6.61;58.89;101811.31;5024795;28;97186;-75
2023/10/16 05:11:24;;;;;;;1.13;0.70;;;;;;;6.63;59.17;101809.63;5024647;28;97195;-76
2023/10/16 05:13:56;;;;;;;0.87;0.87;;;;;;;6.61;59.09;101820.28;5024795;28;97917;-75
2023/10/16 05:16:30;;;;;;;1.63;0.60;;;;;;;6.62;59.15;101808.09;5024273;28;97830;-75
2023/10/16 06:16:18;;;;;;;2.13;0.70;;;;;;;6.90;59.56;101819.78;5023906;28;97143;-75
2023/10/16 06:18:47;;;;;;;1.00;0.70;;;;;;;6.95;59.49;101832.94;5023707;28;97021;-75
2023/10/16 06:21:17;;;;;;;0.70;0.60;;;;;;;6.99;59.55;101839.78;5021790;28;97312;-75
2023/10/16 06:23:48;;;;;;;1.10;0.80;;;;;;;6.99;59.59;101839.03;5023063;28;97640;-75
2023/10/16 06:26:16;;;;;;;1.30;0.70;;;;;;;6.98;59.50;101829.25;5023047;28;97500;-75
2023/10/16 06:28:49;;;;;;;1.63;0.70;;;;;;;7.00;59.74;101833.09;5024387;28;97234;-75
2023/10/16 06:31:24;;;;;;;1.43;1.10;;;;;;;7.01;59.80;101847.59;5022635;28;97324;-75
2023/10/16 06:33:56;;;;;;;1.43;0.70;;;;;;;7.04;59.73;101838.41;5039406;27;99009;-75
2023/10/16 06:36:23;;;;;;;3.03;0.90;;;;;;;7.02;59.65;101841.63;5020570;28;96983;-75
2023/10/16 06:38:52;;;;;;;0.90;0.57;;;;;;;7.03;59.71;101832.13;5022182;28;97035;-75
2023/10/16 06:41:20;;;;;;;1.10;1.00;;;;;;;7.04;59.85;101843.91;5022372;28;97299;-76
2023/10/16 06:43:49;;;;;;;0.73;0.60;;;;;;;7.07;59.83;101834.75;5022019;28;100155;-76
2023/10/16 06:46:22;;;;;;;0.80;0.67;;;;;;;7.10;60.01;101841.28;5022239;27;97104;-75
2023/10/16 06:48:51;;;;;;;2.10;0.93;;;;;;;7.14;59.78;101830.91;5022844;27;97555;-75
2023/10/16 06:51:17;;;;;;;2.80;1.07;;;;;;;7.11;59.98;101820.81;5022436;28;97174;-75
2023/10/16 06:53:43;;;;;;;1.57;0.70;;;;;;;7.18;59.99;101826.72;5021937;28;100641;-76
2023/10/16 06:56:09;;;;;;;1.30;0.80;;;;;;;7.23;59.90;101837.13;5021396;28;96830;-76
2023/10/16 06:58:34;;;;;;;0.93;0.50;;;;;;;7.28;60.02;101841.22;5022652;27;96699;-75
2023/10/16 07:01:01;;;;;;;1.03;0.70;;;;;;;7.30;60.04;101847.03;5021062;27;96788;-74
2023/10/16 07:03:28;;;;;;;1.20;0.63;;;;;;;7.34;60.02;101842.13;5020846;28;99182;-76
2023/10/16 07:05:53;;;;;;;1.73;0.83;;;;;;;7.39;60.15;101858.03;5022290;27;97035;-74
2023/10/16 07:08:22;;;;;;;1.83;0.80;;;;;;;7.44;59.86;101857.41;5022837;28;97099;-75
2023/10/16 07:10:55;;;;;;;2.40;1.00;;;;;;;7.49;60.14;101851.25;5022583;27;99021;-75
2023/10/16 07:13:27;;;;;;;2.50;1.00;;;;;;;7.50;59.89;101861.03;5022476;27;97844;-75
2023/10/16 07:15:56;;;;;;;2.50;0.93;;;;;;;7.53;59.96;101849.84;5022655;27;97050;-74
2023/10/16 07:18:25;;;;;;;2.20;0.97;;;;;;;7.54;60.05;101854.13;5021858;27;96814;-75
2023/10/16 07:23:34;;;;;;;2.00;0.83;;;;;;;7.60;60.16;101854.25;5019500;28;97431;-75
2023/10/16 07:26:00;;;;;;;3.53;0.87;;;;;;;7.63;60.07;101856.84;5018225;28;96962;-74
2023/10/16 07:28:27;;;;;;;1.90;0.77;;;;;;;7.70;60.05;101861.25;5033273;27;97558;-75
2023/10/16 07:30:57;;;;;;;1.03;0.80;;;;;;;7.78;60.20;101856.91;5020232;28;102395;-75
2023/10/16 07:33:23;;;;;;;2.07;0.87;;;;;;;7.83;60.06;101859.78;5019795;28;99084;-75
2023/10/16 07:35:51;;;;;;;2.30;1.23;;;;;;;7.87;60.09;101862.38;5020210;28;98525;-74
2023/10/16 07:38:21;;;;;;;1.47;1.13;;;;;;;7.96;60.06;101861.56;5019771;27;97130;-75
2023/10/16 07:40:51;;;;;;;8.70;1.53;;;;;;;8.02;60.09;101865.97;5033250;27;100808;-75
2023/10/16 07:43:27;;;;;;;2.00;1.10;;;;;;;8.07;60.28;101868.09;5019366;27;97055;-75
2023/10/16 07:48:50;;;;;;;1.10;0.87;;;;;;;8.15;59.96;101871.22;5020883;28;97419;-75
2023/10/16 07:51:19;;;;;;;0.70;0.70;;;;;;;8.19;60.03;101866.31;5018681;28;97034;-76
2023/10/16 07:53:48;;;;;;;3.43;1.37;;;;;;;8.22;60.01;101882.72;5019992;27;98792;-75
2023/10/16 07:56:29;;;;;;;3.03;1.57;;;;;;;8.22;60.29;101879.94;5018780;28;97500;-75
2023/10/16 07:59:18;;;;;;;2.17;1.30;;;;;;;8.27;60.06;101876.53;5019772;28;97376;-75
2023/10/16 08:01:52;;;;;;;2.03;0.93;;;;;;;8.31;60.18;101870.84;5019504;28;100045;-75
2023/10/16 08:06:48;;;;;;;3.03;1.30;;;;;;;8.40;59.99;101868.03;5019070;28;97452;-75
2023/10/16 08:10:28;;;;;;;1.10;0.90;;;;;;;8.42;60.22;101871.84;5019220;28;97109;-75
2023/10/16 08:12:12;;;;;;;2.20;0.83;;;;;;;8.48;60.18;101864.44;5013174;28;98460;-75
2023/10/16 08:14:41;;;;;;;5.13;1.03;;;;;;;8.58;60.05;101869.88;5020931;28;97426;-75
2023/10/16 08:17:14;;;;;;;2.73;1.10;;;;;;;8.65;60.08;101866.72;5018380;28;96939;-74
2023/10/16 08:19:43;;;;;;;1.53;1.00;;;;;;;8.66;59.90;101868.25;5018483;28;97354;-75
2023/10/16 08:22:09;;;;;;;0.93;0.80;;;;;;;8.70;59.93;101875.13;5016645;28;99568;-75
2023/10/16 08:24:34;;;;;;;1.93;1.00;;;;;;;8.73;60.10;101867.91;5020656;28;96658;-75
2023/10/16 08:29:59;;;;;;;4.10;1.30;;;;;;;8.77;59.71;101872.00;5022881;28;97563;-75
2023/10/16 08:35:17;;;;;;;1.73;0.77;;;;;;;8.82;60.07;101890.63;5018706;28;97243;-75
2023/10/16 08:37:55;;;;;;;1.60;1.07;;;;;;;8.90;59.87;101889.03;5021961;28;96951;-75
2023/10/16 08:40:23;;;;;;;1.50;1.07;;;;;;;8.94;60.17;101895.13;5023534;28;96997;-75
2023/10/16 08:43:01;;;;;;;0.80;0.80;;;;;;;8.99;60.14;101885.44;5023615;27;97360;-75
2023/10/16 08:45:32;;;;;;;5.23;1.07;;;;;;;9.00;60.07;101896.00;5022895;28;98179;-75
2023/10/16 08:47:58;;;;;;;2.60;1.23;;;;;;;9.00;59.88;101890.47;5024115;28;96892;-75
2023/10/16 08:50:40;;;;;;;4.03;1.00;;;;;;;9.06;60.34;101896.06;5020152;27;98608;-75
2023/10/16 08:53:30;;;;;;;2.53;0.90;;;;;;;9.08;60.02;101907.44;5023455;27;97843;-75
2023/10/16 08:56:09;;;;;;;2.47;1.20;;;;;;;9.19;59.97;101899.31;5020352;28;100859;-75
2023/10/16 08:58:39;;;;;;;1.53;1.27;;;;;;;9.27;60.12;101894.94;5020969;27;96941;-75
2023/10/16 09:01:09;;;;;;;0.90;0.80;;;;;;;9.32;59.89;101902.53;5021035;28;97299;-74
2023/10/16 09:03:38;;;;;;;1.83;0.93;;;;;;;9.39;59.65;101901.44;5022988;28;97270;-75
2023/10/16 09:06:04;;;;;;;1.20;0.97;;;;;;;9.42;59.83;101903.22;5021694;28;97329;-75
2023/10/16 09:08:33;;;;;;;2.60;1.17;;;;;;;9.44;59.77;101907.03;5024705;27;97214;-75
2023/10/16 09:11:05;;;;;;;0.80;0.80;;;;;;;9.48;59.80;101912.34;5024343;28;97460;-75
2023/10/16 09:13:35;;;;;;;3.27;1.27;;;;;;;9.53;60.02;101903.41;5021185;28;97346;-76
2023/10/16 09:16:11;;;;;;;1.47;0.80;;;;;;;9.56;59.78;101899.72;5021112;28;97906;-76
2023/10/16 09:18:36;;;;;;;1.20;1.10;;;;;;;9.54;59.81;101900.16;5024102;28;97185;-75
2023/10/16 09:21:13;;;;;;;2.50;0.93;;;;;;;9.56;59.62;101911.50;5024138;28;97396;-77
2023/10/16 09:23:39;;;;;;;1.17;1.07;;;;;;;9.56;59.77;101908.00;5023909;28;97238;-75
2023/10/16 09:26:07;;;;;;;2.40;0.97;;;;;;;9.58;59.62;101914.56;5025457;27;97682;-75
2023/10/16 09:28:33;;;;;;;3.23;1.27;;;;;;;9.63;59.78;101919.41;5021766;27;97158;-75
2023/10/16 09:31:01;;;;;;;2.10;0.90;;;;;;;9.64;59.75;101912.66;5021943;27;97069;-75
2023/10/16 09:33:27;;;;;;;3.00;1.00;;;;;;;9.68;59.77;101910.44;5020773;27;97147;-75
2023/10/16 09:36:00;;;;;;;1.43;0.80;;;;;;;9.72;59.79;101913.78;5023199;27;102314;-76
2023/10/16 09:38:32;;;;;;;2.60;1.00;;;;;;;9.76;59.74;101917.09;5022764;28;97106;-75
2023/10/16 09:41:49;;;;;;;1.00;0.97;;;;;;;9.79;59.71;101913.38;5023890;28;97013;-75
2023/10/16 09:43:56;;;;;;;1.67;0.90;;;;;;;9.85;59.65;101914.22;5008248;27;97765;-76
2023/10/16 09:46:48;;;;;;;2.90;0.97;;;;;;;9.89;59.59;101916.78;5022668;28;96783;-75
2023/10/16 09:49:21;;;;;;;1.93;0.93;;;;;;;9.93;59.60;101920.84;5022131;28;97116;-74
2023/10/16 09:51:47;;;;;;;1.73;0.93;;;;;;;9.95;59.66;101921.13;5025202;28;97108;-75
2023/10/16 09:54:14;;;;;;;0.70;0.70;;;;;;;9.96;59.62;101922.66;5020673;27;98228;-75
2023/10/16 09:56:44;;;;;;;1.43;1.00;;;;;;;9.96;59.50;101922.66;5023664;28;100501;-76
2023/10/16 09:59:22;;;;;;;1.07;0.70;;;;;;;9.95;59.48;101920.41;5018081;27;97366;-75
2023/10/16 10:01:51;;;;;;;1.37;0.70;;;;;;;10.00;59.62;101922.47;5024155;28;100871;-76
2023/10/16 10:04:24;;;;;;;0.80;0.67;;;;;;;10.05;59.60;101913.50;5038617;27;100444;-76
2023/10/16 10:06:54;;;;;;;4.50;0.93;;;;;;;10.13;59.63;101924.91;5016412;27;100034;-76
2023/10/16 10:09:22;;;;;;;0.97;0.80;;;;;;;10.16;59.43;101912.88;5020953;27;97200;-76
2023/10/16 10:12:14;;;;;;;0.90;0.90;;;;;;;10.23;59.48;101918.00;5022660;28;96609;-75
2023/10/16 10:14:49;;;;;;;1.33;1.17;;;;;;;10.27;59.26;101916.56;5038663;27;100325;-75
2023/10/16 10:17:25;;;;;;;2.20;1.00;;;;;;;10.33;59.42;101909.09;5020579;28;100513;-75
2023/10/16 10:19:55;;;;;;;2.07;0.90;;;;;;;10.42;59.35;101908.19;5022210;28;97195;-75
2023/10/16 10:22:28;;;;;;;1.87;0.93;;;;;;;10.50;59.25;101909.31;5019867;28;97681;-75
2023/10/16 10:25:24;;;;;;;2.60;0.80;;;;;;;10.57;59.32;101909.63;5022761;28;98170;-75
2023/10/16 10:27:53;;;;;;;1.13;0.50;;;;;;;10.69;59.20;101916.06;5022812;28;96917;-75
2023/10/16 10:30:25;;;;;;;1.50;0.70;;;;;;;10.86;58.97;101905.94;5021823;27;97213;-75
2023/10/16 10:32:59;;;;;;;1.27;0.80;;;;;;;11.04;59.18;101911.16;5022506;28;98282;-75
2023/10/16 10:35:28;;;;;;;2.10;0.80;;;;;;;11.17;58.77;101906.00;5037307;27;99477;-75
2023/10/16 10:38:29;;;;;;;4.30;0.80;;;;;;;11.24;58.44;101905.53;5021722;28;96675;-75
2023/10/16 10:41:04;;;;;;;0.80;0.77;;;;;;;11.36;58.18;101900.84;5018645;28;97329;-76
2023/10/16 10:43:48;;;;;;;1.10;0.60;;;;;;;11.31;58.08;101899.56;5023238;27;97116;-76
2023/10/16 10:46:22;;;;;;;2.00;0.80;;;;;;;11.27;58.33;101914.88;5021842;28;97154;-77
2023/10/16 10:48:48;;;;;;;1.47;0.70;;;;;;;11.28;58.27;101895.03;5022815;28;97749;-76
2023/10/16 10:51:16;;;;;;;2.50;0.50;;;;;;;11.33;58.50;101894.28;5018988;28;97337;-75
2023/10/16 10:53:58;;;;;;;1.97;0.80;;;;;;;11.41;58.13;101902.94;5021400;27;96822;-76
2023/10/16 10:56:40;;;;;;;0.97;0.60;;;;;;;11.47;58.00;101900.94;5019341;27;97798;-77
2023/10/16 10:59:10;;;;;;;1.40;0.67;;;;;;;11.52;58.08;101892.69;5021130;28;97462;-75
2023/10/16 11:01:44;;;;;;;1.00;0.90;;;;;;;11.65;58.12;101895.03;5017293;28;97368;-76
2023/10/16 11:04:15;;;;;;;1.17;0.70;;;;;;;11.78;57.73;101891.84;5023994;27;96964;-77
2023/10/16 11:06:52;;;;;;;1.47;0.97;;;;;;;11.90;57.48;101885.84;5021463;28;97026;-76
2023/10/16 11:09:21;;;;;;;1.23;0.70;;;;;;;11.97;57.20;101890.22;5039254;27;100165;-76
2023/10/16 11:11:47;;;;;;;0.90;0.53;;;;;;;12.02;57.08;101862.50;5022431;27;97259;-75
2023/10/16 11:14:14;;;;;;;1.10;0.60;;;;;;;12.02;56.94;101873.63;5021831;27;97673;-75
2023/10/16 11:16:43;;;;;;;2.00;0.40;;;;;;;11.95;56.92;101878.84;5019003;27;97386;-74
2023/10/16 11:19:09;;;;;;;1.43;0.50;;;;;;;11.84;56.93;101873.97;5021454;28;97178;-75
2023/10/16 11:21:39;;;;;;;1.17;0.90;;;;;;;11.74;56.90;101891.31;5019621;27;97024;-75
2023/10/16 11:24:06;;;;;;;2.40;0.70;;;;;;;11.63;57.36;101880.16;5023435;28;97136;-75
2023/10/16 11:26:32;;;;;;;0.70;0.70;;;;;;;11.52;57.50;101873.28;5021606;27;97718;-75
2023/10/16 11:29:00;;;;;;;2.10;0.50;;;;;;;11.45;57.72;101876.50;5021274;28;97161;-75
2023/10/16 11:31:26;;;;;;;1.23;0.60;;;;;;;11.45;57.85;101882.06;5020497;28;97145;-74
2023/10/16 11:34:02;;;;;;;1.00;0.57;;;;;;;11.47;57.80;101874.00;5020012;28;97659;-75
2023/10/16 11:36:29;;;;;;;1.83;0.70;;;;;;;11.66;57.89;101890.25;5019142;28;97810;-75
2023/10/16 11:38:59;;;;;;;0.90;0.50;;;;;;;12.00;57.86;101886.47;5019858;28;97188;-75
2023/10/16 11:41:26;;;;;;;6.23;0.70;;;;;;;12.24;57.17;101878.50;5021682;28;97123;-75
2023/10/16 11:43:53;;;;;;;3.33;1.10;;;;;;;12.25;56.84;101877.22;5022083;28;97681;-75
2023/10/16 11:46:29;;;;;;;1.70;1.60;;;;;;;12.29;56.82;101879.78;5017683;28;97349;-75
2023/10/16 11:49:17;;;;;;;1.43;1.33;;;;;;;12.47;56.57;101871.75;5021068;28;100537;-75
2023/10/16 11:51:55;;;;;;;5.43;1.30;;;;;;;12.48;56.31;101870.50;5019828;27;96746;-76
2023/10/16 11:54:25;;;;;;;2.20;0.70;;;;;;;12.59;56.48;101875.34;5020899;28;97549;-75
2023/10/16 11:56:55;;;;;;;1.10;0.60;;;;;;;12.63;56.16;101878.63;5020988;28;97385;-75
2023/10/16 11:59:22;;;;;;;2.90;0.73;;;;;;;12.52;56.02;101879.34;5020932;28;98188;-75
2023/10/16 12:01:51;;;;;;;1.53;0.40;;;;;;;12.41;55.97;101876.53;5021534;28;96815;-75
2023/10/16 12:04:17;;;;;;;0.87;0.60;;;;;;;12.33;56.06;101891.41;5019367;27;97070;-75
2023/10/16 12:06:44;;;;;;;0.60;0.40;;;;;;;12.27;56.37;101885.81;5017928;27;97175;-76
2023/10/16 12:09:13;;;;;;;1.90;0.60;;;;;;;12.20;56.20;101877.97;5020168;27;97643;-76
2023/10/16 12:11:42;;;;;;;1.13;0.63;;;;;;;12.15;56.24;101873.16;5020331;28;97339;-76
2023/10/16 12:14:14;;;;;;;0.97;0.50;;;;;;;12.11;56.23;101875.41;5019503;28;97356;-75
2023/10/16 12:16:45;;;;;;;0.60;0.40;;;;;;;12.09;56.41;101866.84;5021197;28;100017;-75
2023/10/16 12:19:19;;;;;;;1.97;0.60;;;;;;;12.04;56.21;101870.34;5020726;28;97170;-76
2023/10/16 12:21:50;;;;;;;0.80;0.70;;;;;;;12.02;56.40;101870.06;5022140;27;96896;-76
2023/10/16 12:24:16;;;;;;;0.70;0.50;;;;;;;12.02;56.60;101872.84;5017637;28;99767;-75
2023/10/16 12:26:42;;;;;;;1.10;0.60;;;;;;;12.06;56.50;101876.91;5020435;27;97515;-75
2023/10/16 12:29:08;;;;;;;0.60;0.50;;;;;;;12.10;56.46;101882.22;5036319;27;99503;-76
2023/10/16 12:31:34;;;;;;;1.13;0.60;;;;;;;12.23;56.35;101876.97;5018733;28;96833;-76
2023/10/16 12:34:00;;;;;;;7.07;0.77;;;;;;;12.22;55.77;101878.25;5025228;27;96928;-76
2023/10/16 12:36:26;;;;;;;1.33;0.73;;;;;;;12.12;55.56;101871.38;5021461;27;97405;-76
2023/10/16 12:38:53;;;;;;;0.60;0.50;;;;;;;11.92;55.61;101872.25;5019325;28;99334;-75
2023/10/16 12:41:20;;;;;;;1.23;0.50;;;;;;;11.79;55.81;101866.38;5021874;27;97012;-76
2023/10/16 12:43:46;;;;;;;1.63;0.77;;;;;;;11.75;56.08;101878.97;5019107;28;97283;-75
2023/10/16 12:46:12;;;;;;;0.70;0.50;;;;;;;11.73;56.16;101873.16;5021023;27;97597;-75
2023/10/16 12:48:38;;;;;;;1.33;0.50;;;;;;;11.65;56.15;101869.31;5020430;27;97144;-75
2023/10/16 12:51:07;;;;;;;0.60;0.40;;;;;;;11.54;56.17;101878.34;5021254;27;97227;-75
2023/10/16 12:53:32;;;;;;;0.70;0.40;;;;;;;11.48;56.11;101869.97;5018000;28;97344;-75
2023/10/16 12:55:58;;;;;;;0.80;0.50;;;;;;;11.42;56.54;101869.16;5020572;27;97188;-75
2023/10/16 12:58:26;;;;;;;1.00;0.40;;;;;;;11.39;56.51;101864.63;5021574;28;97606;-75
2023/10/16 13:00:51;;;;;;;3.03;0.60;;;;;;;11.34;56.43;101859.81;5019788;28;97346;-75
2023/10/16 13:03:20;;;;;;;0.80;0.50;;;;;;;11.37;56.48;101869.13;5019267;28;97127;-76
2023/10/16 13:05:47;;;;;;;1.10;0.60;;;;;;;11.38;56.59;101860.31;5017639;27;100370;-76
2023/10/16 13:08:12;;;;;;;0.53;0.40;;;;;;;11.29;56.46;101877.13;5017336;28;99446;-75
2023/10/16 13:10:38;;;;;;;0.80;0.40;;;;;;;11.20;56.56;101880.06;5019267;27;97552;-76
2023/10/16 13:13:03;;;;;;;1.07;0.40;;;;;;;11.07;56.81;101873.44;5020672;27;96906;-75
2023/10/16 13:15:29;;;;;;;0.50;0.40;;;;;;;11.02;56.83;101865.81;5019317;28;109378;-75
2023/10/16 13:17:55;;;;;;;0.60;0.33;;;;;;;10.98;57.09;101866.03;5020826;27;97002;-75
2023/10/16 13:20:25;;;;;;;0.60;0.40;;;;;;;11.01;57.25;101878.91;5022551;28;97120;-75
2023/10/16 13:22:52;;;;;;;0.90;0.50;;;;;;;11.02;57.25;101869.34;5022359;28;96928;-75